Time;durP1;ratioP1;P1;durP2;ratioP2;P2;SDS_P1;SDS_P2;PMS_P1;PMS_P2;Temp;Humidity;BMP_temperature;BMP_pressure;BME280_temperature;BME280_humidity;BME280_pressure;Samples;Min_cycle;Max_cycle;Signal;HPM_P1;HPM_P2
2023/08/09 00:01:31;;;;;;;9.73;6.15;;;;;;;18.10;100.00;-18514.13;5104970;28;20142;-78
2023/08/09 00:03:57;;;;;;;9.95;6.82;;;;;;;18.16;100.00;-18515.91;5107249;28;20130;-79
2023/08/09 00:06:22;;;;;;;8.85;6.22;;;;;;;18.35;100.00;-18520.81;5109603;28;20399;-80
2023/08/09 00:08:49;;;;;;;10.23;6.72;;;;;;;18.41;100.00;-18522.44;5110529;28;20056;-78
2023/08/09 00:11:14;;;;;;;9.15;5.95;;;;;;;18.36;100.00;-18521.06;5110917;28;20536;-78
2023/08/09 00:13:39;;;;;;;10.75;6.55;;;;;;;18.15;100.00;-18515.47;5111474;28;20035;-80
2023/08/09 00:16:05;;;;;;;9.90;6.45;;;;;;;17.93;100.00;-18509.75;5099610;28;20154;-80
2023/08/09 00:18:30;;;;;;;10.68;6.13;;;;;;;18.05;100.00;-18512.91;5105912;28;20035;-77
2023/08/09 00:20:56;;;;;;;10.45;6.93;;;;;;;17.90;100.00;-18508.81;5107461;28;20039;-78
2023/08/09 00:23:21;;;;;;;9.55;6.35;;;;;;;18.01;100.00;-18511.81;5110396;28;20122;-77
2023/08/09 00:25:47;;;;;;;8.75;6.07;;;;;;;17.77;100.00;-18505.53;5110342;28;20035;-77
2023/08/09 00:28:13;;;;;;;11.45;7.68;;;;;;;17.82;100.00;-18506.75;5108134;28;20035;-77
2023/08/09 00:30:38;;;;;;;12.35;7.75;;;;;;;17.83;100.00;-18506.88;5102155;28;20126;-80
2023/08/09 00:33:04;;;;;;;9.52;7.55;;;;;;;17.93;100.00;-18509.63;5099711;28;20535;-78
2023/08/09 00:35:30;;;;;;;10.77;7.18;;;;;;;17.89;100.00;-18508.66;5110440;28;20032;-79
2023/08/09 00:37:56;;;;;;;10.43;6.25;;;;;;;17.97;100.00;-18510.72;5096845;28;20380;-78
2023/08/09 00:40:22;;;;;;;10.48;7.85;;;;;;;17.98;100.00;-18510.97;5111827;28;20041;-80
2023/08/09 00:42:47;;;;;;;12.50;7.72;;;;;;;17.80;100.00;-18506.34;5111354;28;20649;-80
2023/08/09 00:45:13;;;;;;;9.38;6.65;;;;;;;17.71;100.00;-18503.88;5109423;28;20103;-80
2023/08/09 00:47:38;;;;;;;14.00;7.88;;;;;;;17.85;100.00;-18507.44;5106078;28;20055;-79
2023/08/09 00:50:05;;;;;;;12.65;8.18;;;;;;;17.88;100.00;-18508.38;5108691;28;20499;-80
2023/08/09 00:52:30;;;;;;;13.07;7.80;;;;;;;17.83;100.00;-18506.88;5111526;28;20041;-80
2023/08/09 00:54:57;;;;;;;11.82;7.78;;;;;;;17.76;100.00;-18505.25;5109671;28;20035;-78
2023/08/09 00:57:22;;;;;;;12.25;8.55;;;;;;;17.88;100.00;-18508.25;5103962;28;20375;-79
2023/08/09 00:59:48;;;;;;;11.95;7.85;;;;;;;17.70;100.00;-18503.63;5105227;28;20032;-78
2023/08/09 01:02:13;;;;;;;14.05;8.35;;;;;;;17.80;100.00;-18506.34;5105238;28;20032;-77
2023/08/09 01:04:39;;;;;;;13.95;9.77;;;;;;;17.92;100.00;-18509.34;5102615;28;20039;-78
2023/08/09 01:07:14;;;;;;;14.23;9.35;;;;;;;17.94;100.00;-18510.03;5103432;28;20044;-78
2023/08/09 01:09:49;;;;;;;15.68;10.07;;;;;;;18.17;100.00;-18516.03;5085228;28;20101;-79
2023/08/09 01:12:19;;;;;;;16.83;10.48;;;;;;;18.16;100.00;-18515.75;5100090;28;20050;-79
2023/08/09 01:14:51;;;;;;;18.38;10.35;;;;;;;17.99;100.00;-18511.25;5098589;28;20043;-78
2023/08/09 01:17:17;;;;;;;16.80;9.90;;;;;;;17.85;100.00;-18507.56;5103350;28;20081;-76
2023/08/09 01:19:53;;;;;;;17.40;10.40;;;;;;;17.94;100.00;-18510.03;5105863;28;20039;-78
2023/08/09 01:22:30;;;;;;;16.20;10.00;;;;;;;18.36;100.00;-18521.22;5100917;28;20491;-78
2023/08/09 01:25:00;;;;;;;17.15;10.75;;;;;;;18.43;100.00;-18523.13;5105173;28;20619;-79
2023/08/09 01:27:26;;;;;;;16.35;10.60;;;;;;;18.22;100.00;-18517.41;5105157;28;20046;-80
2023/08/09 01:29:51;;;;;;;15.60;10.88;;;;;;;18.19;100.00;-18516.56;5102867;28;20044;-80
2023/08/09 01:32:17;;;;;;;17.60;10.38;;;;;;;18.17;100.00;-18516.03;5100651;28;20040;-77
2023/08/09 01:34:42;;;;;;;18.23;10.88;;;;;;;18.17;100.00;-18516.16;5084030;28;20523;-79
2023/08/09 01:37:23;;;;;;;17.17;11.45;;;;;;;18.31;100.00;-18519.72;5101904;28;20032;-79
2023/08/09 01:39:52;;;;;;;17.58;10.05;;;;;;;17.95;100.00;-18510.31;5065056;28;20085;-78
2023/08/09 01:42:19;;;;;;;16.55;10.00;;;;;;;17.80;100.00;-18506.34;5102288;28;20073;-79
2023/08/09 01:44:46;;;;;;;19.02;11.45;;;;;;;17.95;100.00;-18510.31;5103101;28;20039;-77
2023/08/09 01:47:12;;;;;;;18.10;10.93;;;;;;;17.89;100.00;-18508.53;5099524;28;20039;-79
2023/08/09 01:49:44;;;;;;;19.35;11.43;;;;;;;17.86;100.00;-18507.84;5087681;28;20398;-77
2023/08/09 01:52:10;;;;;;;16.95;11.10;;;;;;;17.77;100.00;-18505.53;5101216;28;20076;-80
2023/08/09 01:54:35;;;;;;;19.00;9.90;;;;;;;17.73;100.00;-18504.28;5100879;28;20072;-79
2023/08/09 01:57:01;;;;;;;17.80;10.20;;;;;;;17.70;100.00;-18503.63;5103137;28;20483;-79
2023/08/09 01:59:26;;;;;;;19.33;11.38;;;;;;;17.84;100.00;-18507.16;5104052;28;20036;-78
2023/08/09 02:01:51;;;;;;;20.45;12.90;;;;;;;17.85;100.00;-18507.56;5088592;28;20059;-79
2023/08/09 02:04:16;;;;;;;20.55;13.15;;;;;;;17.76;100.00;-18505.25;5060721;28;20043;-78
2023/08/09 02:06:42;;;;;;;18.77;11.52;;;;;;;17.61;100.00;-18501.16;5065503;28;20044;-78
2023/08/09 02:09:07;;;;;;;20.80;11.88;;;;;;;17.69;100.00;-18503.34;5096698;28;20038;-78
2023/08/09 02:11:33;;;;;;;20.00;11.98;;;;;;;17.74;100.00;-18504.69;5097291;28;20089;-77
2023/08/09 02:13:58;;;;;;;21.50;12.77;;;;;;;17.88;100.00;-18508.25;5092160;28;20066;-78
2023/08/09 02:16:23;;;;;;;21.13;12.63;;;;;;;17.79;100.00;-18505.94;5081634;28;20043;-78
2023/08/09 02:18:49;;;;;;;21.60;12.00;;;;;;;17.80;100.00;-18506.22;5097046;28;20119;-78
2023/08/09 02:21:14;;;;;;;20.75;13.25;;;;;;;17.86;100.00;-18507.72;5096110;28;20415;-77
2023/08/09 02:23:40;;;;;;;22.55;11.70;;;;;;;17.83;100.00;-18507.03;5082703;28;20051;-78
2023/08/09 02:26:07;;;;;;;23.55;13.40;;;;;;;17.89;100.00;-18508.66;5096354;28;20050;-76
2023/08/09 02:28:32;;;;;;;21.80;12.52;;;;;;;17.93;100.00;-18509.63;5097622;28;20134;-78
2023/08/09 02:30:58;;;;;;;22.25;12.50;;;;;;;17.87;100.00;-18508.13;5094348;28;20036;-77
2023/08/09 02:33:23;;;;;;;24.70;14.30;;;;;;;18.04;100.00;-18512.75;5096704;28;20460;-76
2023/08/09 02:35:59;;;;;;;24.77;13.65;;;;;;;18.07;100.00;-18513.31;5093677;28;20074;-78
2023/08/09 02:38:26;;;;;;;23.70;13.13;;;;;;;17.97;100.00;-18510.72;5098010;28;20241;-78
2023/08/09 02:40:52;;;;;;;23.08;13.38;;;;;;;17.93;100.00;-18509.63;5099749;28;20052;-78
2023/08/09 02:43:18;;;;;;;27.40;12.95;;;;;;;17.88;100.00;-18508.25;5101948;28;20521;-77
2023/08/09 02:45:44;;;;;;;26.15;14.75;;;;;;;17.65;100.00;-18502.25;5100597;28;21259;-77
2023/08/09 02:48:10;;;;;;;24.58;14.27;;;;;;;17.75;100.00;-18504.97;5099781;28;20132;-76
2023/08/09 02:50:36;;;;;;;27.35;15.48;;;;;;;17.83;100.00;-18506.88;5097798;28;20445;-78
2023/08/09 02:53:05;;;;;;;25.70;15.15;;;;;;;17.73;100.00;-18504.28;5102046;28;20028;-78
2023/08/09 02:55:31;;;;;;;26.02;14.23;;;;;;;17.71;100.00;-18503.75;5096503;28;20046;-77
2023/08/09 02:57:58;;;;;;;25.95;14.75;;;;;;;17.81;100.00;-18506.63;5096689;28;20044;-77
2023/08/09 03:00:23;;;;;;;22.02;13.27;;;;;;;17.71;100.00;-18503.88;5091360;28;20040;-77
2023/08/09 03:02:49;;;;;;;25.27;14.85;;;;;;;17.59;100.00;-18500.75;5100569;28;20043;-78
2023/08/09 03:05:15;;;;;;;25.80;15.23;;;;;;;17.87;100.00;-18507.97;5082211;28;20509;-76
2023/08/09 03:07:41;;;;;;;28.63;15.93;;;;;;;17.74;100.00;-18504.69;5097355;28;20126;-79
2023/08/09 03:10:07;;;;;;;27.90;14.57;;;;;;;17.72;100.00;-18504.03;5099063;28;20086;-77
2023/08/09 03:12:32;;;;;;;27.58;15.35;;;;;;;17.87;100.00;-18508.13;5098323;28;20087;-77
2023/08/09 03:14:58;;;;;;;30.00;15.68;;;;;;;17.80;100.00;-18506.34;5101837;28;20043;-77
2023/08/09 03:17:23;;;;;;;26.98;14.25;;;;;;;17.80;100.00;-18506.22;5101597;28;20036;-77
2023/08/09 03:19:49;;;;;;;31.08;15.82;;;;;;;17.83;100.00;-18506.88;5097201;28;20067;-79
2023/08/09 03:22:15;;;;;;;30.02;16.08;;;;;;;17.64;100.00;-18501.84;5083662;28;20504;-77
2023/08/09 03:24:41;;;;;;;30.38;14.30;;;;;;;17.68;100.00;-18503.06;5097411;28;20161;-79
2023/08/09 03:27:06;;;;;;;38.25;18.90;;;;;;;17.71;100.00;-18503.88;5099895;28;20051;-77
2023/08/09 03:29:32;;;;;;;33.15;16.40;;;;;;;17.44;100.00;-18496.66;5099210;28;20046;-77
2023/08/09 03:31:58;;;;;;;33.10;17.08;;;;;;;17.58;100.00;-18500.34;5098669;28;20103;-77
2023/08/09 03:34:23;;;;;;;30.75;15.02;;;;;;;17.51;100.00;-18498.56;5096395;28;20059;-77
2023/08/09 03:36:49;;;;;;;34.15;16.23;;;;;;;17.45;100.00;-18496.78;5098691;28;20132;-77
2023/08/09 03:39:14;;;;;;;34.30;17.98;;;;;;;17.50;100.00;-18498.16;5097230;28;20032;-77
2023/08/09 03:41:41;;;;;;;31.85;15.98;;;;;;;17.59;100.00;-18500.75;5082447;28;20398;-76
2023/08/09 03:44:06;;;;;;;27.58;14.77;;;;;;;17.52;100.00;-18498.69;5099141;28;20465;-78
2023/08/09 03:46:32;;;;;;;35.83;17.73;;;;;;;17.52;100.00;-18498.84;5095050;28;20050;-76
2023/08/09 03:48:57;;;;;;;31.95;15.18;;;;;;;17.49;100.00;-18497.88;5099859;28;20916;-76
2023/08/09 03:51:23;;;;;;;36.20;15.50;;;;;;;17.39;100.00;-18495.16;5096095;28;20104;-76
2023/08/09 03:53:48;;;;;;;36.53;15.18;;;;;;;17.34;100.00;-18493.91;5099108;28;20050;-78
2023/08/09 03:56:13;;;;;;;34.35;17.02;;;;;;;17.33;100.00;-18493.78;5098382;28;20047;-77
2023/08/09 03:58:39;;;;;;;36.53;17.23;;;;;;;17.34;100.00;-18493.91;5095974;28;20126;-76
2023/08/09 04:01:04;;;;;;;32.33;15.93;;;;;;;17.42;100.00;-18495.97;5098488;28;20127;-78
2023/08/09 04:03:29;;;;;;;35.88;15.55;;;;;;;17.33;100.00;-18493.78;5094269;28;20070;-79
2023/08/09 04:05:55;;;;;;;39.45;18.20;;;;;;;17.36;100.00;-18494.47;5098805;28;20040;-76
2023/08/09 04:08:21;;;;;;;36.80;17.17;;;;;;;17.29;100.00;-18492.69;5098460;28;20074;-78
2023/08/09 04:10:47;;;;;;;38.45;17.48;;;;;;;17.43;100.00;-18496.25;5098048;28;20430;-77
2023/08/09 04:13:13;;;;;;;39.85;17.95;;;;;;;17.34;100.00;-18494.06;5096032;28;20046;-78
2023/08/09 04:15:38;;;;;;;41.85;18.42;;;;;;;17.36;100.00;-18494.47;5097625;28;20059;-77
2023/08/09 04:18:04;;;;;;;49.70;18.02;;;;;;;17.15;100.00;-18488.88;5099358;28;20043;-77
2023/08/09 04:20:31;;;;;;;45.80;19.30;;;;;;;17.28;100.00;-18492.41;5100842;28;20033;-77
2023/08/09 04:22:57;;;;;;;40.10;16.60;;;;;;;17.09;100.00;-18487.22;5102325;28;20035;-77
2023/08/09 04:25:22;;;;;;;41.08;17.00;;;;;;;16.96;100.00;-18483.69;5097579;28;20189;-77
2023/08/09 04:27:48;;;;;;;39.42;17.40;;;;;;;17.18;100.00;-18489.56;5103358;28;20052;-77
2023/08/09 04:30:14;;;;;;;45.17;19.70;;;;;;;17.34;100.00;-18494.06;5103175;28;20042;-77
2023/08/09 04:32:39;;;;;;;44.65;19.30;;;;;;;17.21;100.00;-18490.38;5097000;28;20040;-77
2023/08/09 04:35:05;;;;;;;39.78;17.73;;;;;;;17.19;100.00;-18489.97;5101089;28;20063;-78
2023/08/09 04:37:31;;;;;;;40.80;17.30;;;;;;;17.04;100.00;-18486.00;5080877;28;20038;-79
2023/08/09 04:39:57;;;;;;;32.67;14.55;;;;;;;16.96;100.00;-18483.81;5097002;28;20096;-79
2023/08/09 04:42:22;;;;;;;33.63;16.25;;;;;;;16.98;100.00;-18484.38;5100124;28;20511;-77
2023/08/09 04:44:48;;;;;;;50.88;19.20;;;;;;;17.00;100.00;-18484.78;5103249;28;20050;-76
2023/08/09 04:47:14;;;;;;;45.55;17.08;;;;;;;16.99;100.00;-18484.63;5099900;28;20035;-78
2023/08/09 04:49:39;;;;;;;45.85;19.10;;;;;;;17.17;100.00;-18489.28;5100635;28;20173;-78
2023/08/09 04:52:05;;;;;;;42.17;17.35;;;;;;;17.07;100.00;-18486.81;5097946;28;20043;-77
2023/08/09 04:54:31;;;;;;;45.92;19.27;;;;;;;17.18;100.00;-18489.69;5099677;28;20047;-77
2023/08/09 04:56:56;;;;;;;36.35;16.02;;;;;;;17.16;100.00;-18489.00;5080086;28;20328;-78
2023/08/09 04:59:22;;;;;;;35.78;17.55;;;;;;;17.07;100.00;-18486.81;5103963;28;20557;-80
2023/08/09 05:01:47;;;;;;;34.25;16.08;;;;;;;16.91;100.00;-18482.59;5104709;28;20053;-78
2023/08/09 05:04:12;;;;;;;33.53;14.77;;;;;;;16.86;100.00;-18481.09;5103202;28;20080;-78
2023/08/09 05:06:39;;;;;;;34.08;15.77;;;;;;;16.71;100.00;-18477.13;5102293;28;20039;-78
2023/08/09 05:09:05;;;;;;;33.15;15.18;;;;;;;16.62;100.00;-18474.66;5106338;28;20046;-78
2023/08/09 05:11:31;;;;;;;31.95;15.88;;;;;;;16.70;100.00;-18476.84;5089490;28;20036;-76
2023/08/09 05:13:56;;;;;;;25.95;14.10;;;;;;;16.57;100.00;-18473.44;5082696;28;20081;-78
2023/08/09 05:16:25;;;;;;;34.67;16.67;;;;;;;16.65;100.00;-18475.47;5102270;28;20122;-78
2023/08/09 05:18:52;;;;;;;31.85;15.55;;;;;;;16.37;100.00;-18468.09;5090608;28;20145;-79
2023/08/09 05:21:17;;;;;;;30.35;14.85;;;;;;;16.48;100.00;-18470.97;5106712;28;20068;-78
2023/08/09 05:23:43;;;;;;;34.53;17.15;;;;;;;16.69;100.00;-18476.56;5100429;28;20031;-78
2023/08/09 05:26:08;;;;;;;30.23;16.15;;;;;;;16.73;100.00;-18477.66;5103113;28;20047;-78
2023/08/09 05:28:34;;;;;;;32.15;16.05;;;;;;;16.76;100.00;-18478.50;5106462;28;20115;-78
2023/08/09 05:30:59;;;;;;;31.33;16.88;;;;;;;16.89;100.00;-18482.03;5106620;28;20408;-78
2023/08/09 05:33:24;;;;;;;28.55;16.30;;;;;;;16.85;100.00;-18480.94;5106152;28;20138;-79
2023/08/09 05:35:50;;;;;;;32.47;15.77;;;;;;;16.71;100.00;-18477.13;5101678;28;20432;-77
2023/08/09 05:38:15;;;;;;;27.83;13.52;;;;;;;16.63;100.00;-18475.06;5107275;28;20104;-78
2023/08/09 05:40:40;;;;;;;31.90;15.75;;;;;;;16.63;100.00;-18475.06;5107956;28;20082;-78
2023/08/09 05:43:06;;;;;;;32.53;16.50;;;;;;;16.80;100.00;-18479.59;5105685;27;20070;-78
2023/08/09 05:45:32;;;;;;;29.23;15.25;;;;;;;16.65;100.00;-18475.47;5036057;28;20080;-79
2023/08/09 05:47:57;;;;;;;26.48;12.82;;;;;;;16.63;100.00;-18474.94;5062146;28;20044;-78
2023/08/09 05:50:22;;;;;;;29.25;13.85;;;;;;;16.69;100.00;-18476.72;5062125;28;20105;-78
2023/08/09 05:52:48;;;;;;;32.13;13.88;;;;;;;16.72;100.00;-18477.41;5061509;28;20471;-78
2023/08/09 05:55:13;;;;;;;28.80;14.38;;;;;;;16.62;100.00;-18474.78;5053685;28;20491;-78
2023/08/09 05:57:39;;;;;;;34.78;17.75;;;;;;;16.84;100.00;-18480.69;5061654;28;20086;-78
2023/08/09 06:00:06;;;;;;;29.05;14.00;;;;;;;16.73;100.00;-18477.66;5063283;28;20102;-78
2023/08/09 06:02:33;;;;;;;34.13;15.63;;;;;;;16.87;100.00;-18481.34;5051907;28;20036;-78
2023/08/09 06:05:00;;;;;;;32.53;16.77;;;;;;;16.97;100.00;-18483.94;5063431;28;20111;-77
2023/08/09 06:07:25;;;;;;;32.95;15.20;;;;;;;16.99;100.00;-18484.63;5053753;28;20040;-78
2023/08/09 06:09:50;;;;;;;42.83;18.35;;;;;;;17.29;100.00;-18492.56;5058972;28;20056;-78
2023/08/09 06:12:16;;;;;;;29.23;14.52;;;;;;;17.07;100.00;-18486.69;5044147;28;20105;-78
2023/08/09 06:14:41;;;;;;;33.22;15.88;;;;;;;17.35;100.00;-18494.34;5067574;28;20040;-79
2023/08/09 06:17:07;;;;;;;33.80;16.67;;;;;;;17.40;100.00;-18495.41;5092006;28;20112;-77
2023/08/09 06:19:33;;;;;;;36.50;17.85;;;;;;;17.10;100.00;-18487.50;5101767;28;20055;-79
2023/08/09 06:21:59;;;;;;;35.42;16.40;;;;;;;17.23;100.00;-18491.06;5102352;28;20037;-78
2023/08/09 06:24:24;;;;;;;37.90;18.52;;;;;;;17.11;100.00;-18487.78;5103829;28;20111;-80
2023/08/09 06:26:50;;;;;;;35.88;17.20;;;;;;;17.12;100.00;-18488.06;5104961;28;20032;-78
2023/08/09 06:29:15;;;;;;;34.42;16.42;;;;;;;17.13;100.00;-18488.31;5102614;28;20067;-78
2023/08/09 06:31:41;;;;;;;37.45;16.08;;;;;;;17.19;100.00;-18489.81;5104475;28;20031;-80
2023/08/09 06:34:08;;;;;;;40.03;17.70;;;;;;;17.16;100.00;-18489.13;5079956;28;20037;-78
2023/08/09 06:36:34;;;;;;;32.42;14.82;;;;;;;17.08;100.00;-18486.97;5086458;28;20054;-79
2023/08/09 06:39:00;;;;;;;37.08;18.25;;;;;;;17.24;100.00;-18491.19;5102921;28;20488;-78
2023/08/09 06:41:25;;;;;;;42.55;16.83;;;;;;;17.10;100.00;-18487.50;5103409;28;20036;-78
2023/08/09 06:43:50;;;;;;;34.83;16.50;;;;;;;17.28;100.00;-18492.41;5103202;28;20047;-78
2023/08/09 06:46:16;;;;;;;35.03;13.98;;;;;;;17.21;100.00;-18490.50;5096514;28;20403;-78
2023/08/09 06:48:41;;;;;;;37.35;17.35;;;;;;;17.24;100.00;-18491.19;5103625;28;20093;-80
2023/08/09 06:51:07;;;;;;;41.83;17.42;;;;;;;17.23;100.00;-18490.91;5105245;28;20111;-77
2023/08/09 06:53:32;;;;;;;34.08;15.88;;;;;;;17.15;100.00;-18488.88;5105073;28;20093;-79
2023/08/09 06:55:58;;;;;;;35.00;17.90;;;;;;;17.39;100.00;-18495.16;5103482;28;20394;-77
2023/08/09 06:58:24;;;;;;;32.25;15.98;;;;;;;17.45;100.00;-18496.78;5105933;28;20456;-81
2023/08/09 07:00:49;;;;;;;36.03;16.33;;;;;;;17.46;100.00;-18497.06;5095380;28;20043;-78
2023/08/09 07:03:15;;;;;;;35.08;17.90;;;;;;;17.84;100.00;-18507.16;5095345;28;20046;-76
2023/08/09 07:05:42;;;;;;;29.85;15.90;;;;;;;17.78;100.00;-18505.81;5093606;28;20062;-78
2023/08/09 07:08:07;;;;;;;31.13;17.08;;;;;;;17.80;100.00;-18506.34;5097095;28;20418;-77
2023/08/09 07:10:33;;;;;;;27.40;13.00;;;;;;;17.74;100.00;-18504.69;5101584;28;20031;-78
2023/08/09 07:12:58;;;;;;;25.70;14.40;;;;;;;17.72;100.00;-18504.16;5090642;28;20048;-78
2023/08/09 07:15:27;;;;;;;28.25;15.63;;;;;;;17.89;100.00;-18508.53;5098372;28;20052;-79
2023/08/09 07:17:52;;;;;;;30.38;15.82;;;;;;;17.80;100.00;-18506.34;5085488;28;20581;-78
2023/08/09 07:20:18;;;;;;;28.88;14.70;;;;;;;17.88;100.00;-18508.25;5088520;28;20075;-76
2023/08/09 07:22:44;;;;;;;28.15;16.75;;;;;;;18.31;100.00;-18519.72;5091351;28;20051;-78
2023/08/09 07:25:11;;;;;;;30.02;15.77;;;;;;;18.08;100.00;-18513.56;5103097;28;20120;-76
2023/08/09 07:27:45;;;;;;;28.25;16.52;;;;;;;18.34;100.00;-18520.66;5082470;28;20475;-79
2023/08/09 07:30:12;;;;;;;28.40;17.65;;;;;;;18.46;100.00;-18523.94;5099754;28;20108;-77
2023/08/09 07:32:38;;;;;;;28.63;15.18;;;;;;;18.51;100.00;-18525.03;5098243;28;20059;-79
2023/08/09 07:35:05;;;;;;;21.88;13.23;;;;;;;18.40;100.00;-18522.16;5101272;28;20085;-77
2023/08/09 07:37:30;;;;;;;29.08;15.93;;;;;;;18.57;100.00;-18526.81;5097658;28;20028;-78
2023/08/09 07:39:56;;;;;;;21.40;13.82;;;;;;;18.63;100.00;-18528.44;5101174;28;20122;-78
2023/08/09 07:42:21;;;;;;;22.38;14.23;;;;;;;18.81;100.00;-18533.06;5102296;28;20177;-79
2023/08/09 07:44:46;;;;;;;21.50;14.23;;;;;;;18.94;100.00;-18536.63;5101030;28;20095;-77
2023/08/09 07:47:12;;;;;;;21.00;13.80;;;;;;;18.92;100.00;-18536.22;5100638;28;20450;-78
2023/08/09 07:49:37;;;;;;;22.00;12.38;;;;;;;18.78;100.00;-18532.25;5099420;28;20475;-78
2023/08/09 07:52:03;;;;;;;21.65;15.25;;;;;;;18.82;100.00;-18533.50;5099893;28;20043;-78
2023/08/09 07:54:28;;;;;;;22.25;14.20;;;;;;;18.90;100.00;-18535.53;5097635;28;20032;-78
2023/08/09 07:56:53;;;;;;;18.75;13.38;;;;;;;18.91;100.00;-18535.94;5102898;28;20039;-78
2023/08/09 07:59:19;;;;;;;20.30;13.70;;;;;;;18.97;100.00;-18537.44;5101422;28;20043;-77
2023/08/09 08:01:45;;;;;;;21.75;14.25;;;;;;;19.09;100.00;-18540.56;5104587;28;20050;-77
2023/08/09 08:04:10;;;;;;;20.00;12.40;;;;;;;19.27;100.00;-18545.34;5101894;28;20044;-78
2023/08/09 08:06:35;;;;;;;19.15;11.70;;;;;;;19.21;100.00;-18543.72;5104715;28;20495;-78
2023/08/09 08:09:01;;;;;;;21.13;11.43;;;;;;;19.32;100.00;-18546.72;5106607;28;20722;-77
2023/08/09 08:11:26;;;;;;;16.13;11.15;;;;;;;19.27;100.00;-18545.47;5105605;28;20061;-79
2023/08/09 08:13:52;;;;;;;13.73;9.50;;;;;;;19.53;100.00;-18552.28;5105027;28;20094;-77
2023/08/09 08:16:17;;;;;;;16.27;10.45;;;;;;;19.61;100.00;-18554.59;5104443;28;20043;-79
2023/08/09 08:18:42;;;;;;;13.85;8.15;;;;;;;19.56;100.00;-18553.25;5098856;28;20403;-78
2023/08/09 08:21:08;;;;;;;14.18;9.02;;;;;;;19.29;100.00;-18545.88;5103575;28;20066;-78
2023/08/09 08:23:34;;;;;;;14.90;9.07;;;;;;;19.27;100.00;-18545.34;5098562;28;20052;-79
2023/08/09 08:25:59;;;;;;;13.40;8.38;;;;;;;19.25;100.00;-18544.94;5106004;28;20137;-78
2023/08/09 08:28:25;;;;;;;16.23;9.55;;;;;;;19.71;100.00;-18557.06;5103125;28;20039;-77
2023/08/09 08:30:50;;;;;;;12.20;7.13;;;;;;;19.59;100.00;-18554.06;5099320;28;20414;-78
2023/08/09 08:33:16;;;;;;;11.20;8.00;;;;;;;19.68;100.00;-18556.38;5107093;28;20921;-77
2023/08/09 08:35:48;;;;;;;12.65;8.07;;;;;;;19.55;100.00;-18552.97;5103300;28;20036;-80
2023/08/09 08:38:15;;;;;;;12.25;6.88;;;;;;;19.53;100.00;-18552.44;5100639;28;20092;-76
2023/08/09 08:40:41;;;;;;;12.85;8.63;;;;;;;19.79;100.00;-18559.25;5085387;28;20035;-79
2023/08/09 08:43:08;;;;;;;13.25;7.93;;;;;;;19.89;100.00;-18561.97;5103415;28;20056;-78
2023/08/09 08:45:38;;;;;;;10.45;6.53;;;;;;;19.72;100.00;-18557.47;5104386;28;20047;-78
2023/08/09 08:48:06;;;;;;;10.15;6.35;;;;;;;19.49;100.00;-18551.34;5082034;28;20036;-81
2023/08/09 08:50:33;;;;;;;10.35;6.70;;;;;;;19.70;100.00;-18556.78;5103256;28;20051;-80
2023/08/09 08:52:59;;;;;;;12.18;7.03;;;;;;;20.00;100.00;-18564.97;5101503;28;20071;-78
2023/08/09 08:55:24;;;;;;;10.38;7.05;;;;;;;20.33;100.00;-18573.66;5094548;28;20641;-78
2023/08/09 08:57:50;;;;;;;9.20;5.88;;;;;;;20.26;100.00;-18571.91;5102332;28;20134;-78
2023/08/09 09:00:17;;;;;;;10.45;6.40;;;;;;;20.46;100.00;-18577.06;5103803;28;20118;-79
2023/08/09 09:02:44;;;;;;;9.20;6.82;;;;;;;20.48;100.00;-18577.63;5099459;28;20059;-77
2023/08/09 09:05:11;;;;;;;9.75;5.88;;;;;;;20.72;100.00;-18584.00;5098125;28;20495;-78
2023/08/09 09:07:38;;;;;;;8.23;5.35;;;;;;;20.75;100.00;-18584.69;5101688;28;20055;-77
2023/08/09 09:10:05;;;;;;;8.18;6.10;;;;;;;20.71;100.00;-18583.75;5101590;28;20089;-79
2023/08/09 09:12:33;;;;;;;13.07;7.28;;;;;;;20.72;100.00;-18584.16;5102988;28;20066;-77
2023/08/09 09:14:58;;;;;;;8.63;5.75;;;;;;;20.73;100.00;-18584.28;5099413;28;20040;-78
2023/08/09 09:17:25;;;;;;;7.97;4.93;;;;;;;20.76;100.00;-18585.09;5102662;28;20095;-79
2023/08/09 09:19:51;;;;;;;7.38;4.55;;;;;;;20.74;100.00;-18584.56;5099472;28;20510;-81
2023/08/09 09:22:27;;;;;;;6.93;4.38;;;;;;;20.30;100.00;-18572.84;5100493;28;20055;-77
2023/08/09 09:24:59;;;;;;;8.50;5.47;;;;;;;21.02;100.00;-18591.91;5063328;28;20051;-78
2023/08/09 09:27:30;;;;;;;9.45;4.43;;;;;;;21.10;100.00;-18594.09;5099144;28;20051;-79
2023/08/09 09:30:04;;;;;;;5.95;3.85;;;;;;;20.99;100.00;-18591.09;5081486;28;20043;-78
2023/08/09 09:32:35;;;;;;;7.00;4.80;;;;;;;21.06;100.00;-18593.13;5097745;28;20032;-78
2023/08/09 09:35:04;;;;;;;7.85;3.75;;;;;;;21.28;100.00;-18598.97;5102433;28;20052;-79
2023/08/09 09:37:29;;;;;;;9.57;5.03;;;;;;;21.46;100.00;-18603.59;5103107;28;20531;-78
2023/08/09 09:39:55;;;;;;;6.82;4.40;;;;;;;21.19;100.00;-18596.53;5087708;28;20153;-78
2023/08/09 09:42:34;;;;;;;6.88;4.13;;;;;;;21.49;100.00;-18604.56;5087129;28;20398;-79
2023/08/09 09:45:24;;;;;;;5.90;3.67;;;;;;;21.84;100.00;-18613.78;5081146;28;20039;-78
2023/08/09 09:47:51;;;;;;;4.90;3.50;;;;;;;21.75;99.87;-18611.47;5101620;28;20044;-79
2023/08/09 09:50:17;;;;;;;6.88;4.38;;;;;;;21.54;100.00;-18605.78;5096840;28;20074;-79
2023/08/09 09:52:44;;;;;;;6.45;3.08;;;;;;;;;;5095612;28;20042;-79
2023/08/09 09:55:10;;;;;;;4.68;2.85;;;;;;;21.74;94.19;-18611.06;5101919;28;20135;-78
2023/08/09 09:57:36;;;;;;;7.07;2.88;;;;;;;21.94;96.38;-18616.38;5086938;28;20130;-78
2023/08/09 10:00:32;;;;;;;4.85;3.10;;;;;;;22.12;95.90;-18621.13;5101806;28;20182;-78
2023/08/09 10:02:57;;;;;;;4.95;2.83;;;;;;;21.88;91.73;-18614.75;5098098;28;20047;-79
2023/08/09 10:05:29;;;;;;;6.10;3.05;;;;;;;22.13;93.21;-18621.53;5099934;28;20597;-78
2023/08/09 10:07:56;;;;;;;6.50;2.70;;;;;;;22.14;93.75;-18621.66;5102500;28;20047;-79
2023/08/09 10:10:22;;;;;;;4.43;2.53;;;;;;;22.04;97.23;-18619.09;5099852;28;20039;-78
2023/08/09 10:12:51;;;;;;;4.75;2.42;;;;;;;21.91;86.11;-18615.69;5098360;28;20390;-80
2023/08/09 10:15:20;;;;;;;6.93;2.83;;;;;;;21.37;91.07;-18601.41;5102323;28;20804;-78
2023/08/09 10:17:49;;;;;;;4.88;3.13;;;;;;;21.67;95.32;-18609.31;5100221;28;20051;-78
2023/08/09 10:20:15;;;;;;;;;;;;;;;21.99;93.56;-18617.72;5097269;28;20031;-80
2023/08/09 10:22:45;;;;;;;5.60;3.90;;;;;;;21.95;96.83;-18616.66;5096480;28;20319;-79
2023/08/09 10:25:10;;;;;;;7.97;4.28;;;;;;;21.88;97.53;-18614.88;5103563;28;20048;-79
2023/08/09 10:27:53;;;;;;;6.05;3.72;;;;;;;21.75;98.48;-18611.34;5100125;28;20048;-78
2023/08/09 10:30:24;;;;;;;6.88;3.85;;;;;;;21.82;99.12;-18613.25;5098979;28;20733;-79
2023/08/09 10:32:55;;;;;;;6.70;3.03;;;;;;;21.71;89.66;-18610.41;5095043;28;20148;-78
2023/08/09 10:35:50;;;;;;;7.03;3.60;;;;;;;21.67;90.63;-18609.31;5099958;28;20062;-80
2023/08/09 10:38:18;;;;;;;5.80;3.20;;;;;;;21.81;95.89;-18613.13;5081939;28;20048;-79
2023/08/09 10:40:50;;;;;;;8.27;3.60;;;;;;;21.89;87.70;-18615.16;5093209;28;20074;-79
2023/08/09 10:43:20;;;;;;;4.75;3.50;;;;;;;22.18;91.14;-18622.75;5099215;28;20042;-78
2023/08/09 10:45:48;;;;;;;5.35;3.72;;;;;;;22.02;88.75;-18618.69;5083991;28;20122;-79
2023/08/09 10:48:19;;;;;;;7.00;3.15;;;;;;;22.02;94.39;-18618.69;5100080;28;20128;-80
2023/08/09 10:50:45;;;;;;;6.22;3.35;;;;;;;21.85;88.32;-18614.19;5099572;28;20035;-79
2023/08/09 10:53:10;;;;;;;7.30;3.85;;;;;;;21.83;94.89;-18613.66;5100709;28;20107;-79
2023/08/09 10:55:36;;;;;;;7.68;3.97;;;;;;;22.01;90.08;-18618.41;5099131;28;20047;-79
2023/08/09 10:58:02;;;;;;;7.03;4.63;;;;;;;21.99;92.75;-18617.72;5102073;28;20051;-77
2023/08/09 11:00:37;;;;;;;5.13;3.38;;;;;;;21.74;87.80;-18611.22;5098077;28;20112;-78
2023/08/09 11:03:04;;;;;;;4.93;3.05;;;;;;;22.21;83.43;-18623.72;5101930;28;20055;-81
2023/08/09 11:05:29;;;;;;;6.32;3.47;;;;;;;22.12;85.49;-18621.25;5101154;28;20070;-80